Time;durP1;ratioP1;P1;durP2;ratioP2;P2;SDS_P1;SDS_P2;PMS_P1;PMS_P2;Temp;Humidity;BMP_temperature;BMP_pressure;BME280_temperature;BME280_humidity;BME280_pressure;Samples;Min_cycle;Max_cycle;Signal;HPM_P1;HPM_P2
2022/03/09 00:01:31;;;;;;;0.00;0.00;;;2.20;76.80;;;;;;5053049;28;20048;-82
2022/03/09 00:03:57;;;;;;;0.05;0.00;;;2.20;76.90;;;;;;5052619;28;20053;-82
2022/03/09 00:06:22;;;;;;;0.22;0.10;;;2.20;76.90;;;;;;5035806;28;20056;-82
2022/03/09 00:08:48;;;;;;;0.43;0.32;;;2.20;75.90;;;;;;5035957;28;20075;-82
2022/03/09 00:11:14;;;;;;;0.00;0.00;;;2.30;76.40;;;;;;5035863;28;20041;-82
2022/03/09 00:13:42;;;;;;;0.00;0.00;;;2.50;76.60;;;;;;5035962;28;20057;-82
2022/03/09 00:16:08;;;;;;;0.03;0.03;;;2.40;76.70;;;;;;5035840;28;20045;-82
2022/03/09 00:18:34;;;;;;;0.05;0.00;;;2.30;77.10;;;;;;5036226;28;20060;-82
2022/03/09 00:20:59;;;;;;;0.00;0.00;;;2.30;77.60;;;;;;5052563;28;20397;-82
2022/03/09 00:23:25;;;;;;;0.00;0.00;;;2.20;77.20;;;;;;5052075;28;20052;-82
2022/03/09 00:25:51;;;;;;;0.00;0.00;;;2.20;77.90;;;;;;5052960;28;20048;-82
2022/03/09 00:28:16;;;;;;;0.00;0.00;;;2.10;78.40;;;;;;5052672;28;20397;-82
2022/03/09 00:30:42;;;;;;;0.00;0.00;;;2.10;78.80;;;;;;5052779;28;20084;-82
2022/03/09 00:33:08;;;;;;;0.00;0.00;;;2.00;79.10;;;;;;5052704;28;20166;-82
2022/03/09 00:35:33;;;;;;;0.00;0.00;;;2.00;78.80;;;;;;5035804;28;20052;-82
2022/03/09 00:37:59;;;;;;;0.00;0.00;;;2.00;79.30;;;;;;5035282;28;20048;-82
2022/03/09 00:40:25;;;;;;;2.40;0.43;;;2.00;79.70;;;;;;5052815;28;20049;-82
2022/03/09 00:42:50;;;;;;;0.70;0.00;;;2.00;78.90;;;;;;5052634;28;20052;-82
2022/03/09 00:45:19;;;;;;;0.00;0.00;;;2.00;79.30;;;;;;5052495;28;20485;-82
2022/03/09 00:47:45;;;;;;;0.10;0.10;;;2.00;78.90;;;;;;5035814;28;20047;-82
2022/03/09 00:50:10;;;;;;;0.00;0.00;;;1.90;80.70;;;;;;5035850;28;20392;-82
2022/03/09 00:52:36;;;;;;;5.00;1.75;;;1.80;81.60;;;;;;5036070;28;20061;-82
2022/03/09 00:55:02;;;;;;;0.00;0.00;;;1.80;81.10;;;;;;5051885;28;20037;-82
2022/03/09 00:57:28;;;;;;;0.10;0.10;;;1.80;80.30;;;;;;5052021;28;20044;-82
2022/03/09 00:59:53;;;;;;;1.23;0.55;;;1.90;80.30;;;;;;5051761;28;20041;-82
2022/03/09 01:02:19;;;;;;;0.00;0.00;;;1.90;81.50;;;;;;5055702;28;20048;-82
2022/03/09 01:04:45;;;;;;;0.00;0.00;;;1.90;82.30;;;;;;5055520;28;20090;-82
2022/03/09 01:07:10;;;;;;;0.00;0.00;;;1.90;81.60;;;;;;5056133;28;20049;-82
2022/03/09 01:09:36;;;;;;;0.00;0.00;;;1.80;82.10;;;;;;5056016;28;20526;-82
2022/03/09 01:12:02;;;;;;;0.00;0.00;;;1.80;83.10;;;;;;5039055;28;20438;-82
2022/03/09 01:14:28;;;;;;;0.20;0.20;;;1.80;82.70;;;;;;5038871;28;20203;-82
2022/03/09 01:16:53;;;;;;;1.15;0.52;;;1.80;82.90;;;;;;5038946;28;20469;-82
2022/03/09 01:19:19;;;;;;;0.00;0.00;;;1.80;83.10;;;;;;5055591;28;20060;-82
2022/03/09 01:21:45;;;;;;;0.00;0.00;;;1.80;82.90;;;;;;5038921;28;20143;-82
2022/03/09 01:24:11;;;;;;;0.10;0.00;;;1.70;83.40;;;;;;5055647;28;20130;-82
2022/03/09 01:26:36;;;;;;;0.10;0.10;;;1.80;84.00;;;;;;5038804;28;20036;-82
2022/03/09 01:29:03;;;;;;;0.57;0.15;;;1.80;83.90;;;;;;5038322;28;20045;-82
2022/03/09 01:31:29;;;;;;;0.00;0.00;;;1.70;84.00;;;;;;5038487;28;20120;-82
2022/03/09 01:33:54;;;;;;;0.00;0.00;;;1.70;83.90;;;;;;5038961;28;20481;-82
2022/03/09 01:36:20;;;;;;;0.00;0.00;;;1.60;84.50;;;;;;5055545;28;20147;-82
2022/03/09 01:38:46;;;;;;;0.00;0.00;;;1.70;85.20;;;;;;5055580;28;20397;-82
2022/03/09 01:41:11;;;;;;;0.00;0.00;;;1.70;85.70;;;;;;5038968;28;20053;-82
2022/03/09 01:43:38;;;;;;;0.00;0.00;;;1.70;84.50;;;;;;5038555;28;20040;-82
2022/03/09 01:46:04;;;;;;;0.57;0.57;;;1.70;85.30;;;;;;5055097;28;20052;-82
2022/03/09 01:48:30;;;;;;;0.32;0.20;;;1.70;85.80;;;;;;5055085;28;20389;-82
2022/03/09 01:50:55;;;;;;;0.00;0.00;;;1.70;86.60;;;;;;5055061;28;20384;-83
2022/03/09 01:53:21;;;;;;;0.20;0.15;;;1.80;84.50;;;;;;5055556;28;20056;-83
2022/03/09 01:55:47;;;;;;;0.00;0.00;;;1.80;86.10;;;;;;5054866;28;20057;-83
2022/03/09 01:58:13;;;;;;;0.00;0.00;;;1.80;85.00;;;;;;5054777;28;20132;-83
2022/03/09 02:00:38;;;;;;;0.00;0.00;;;1.80;85.50;;;;;;5054894;28;20041;-83
2022/03/09 02:03:04;;;;;;;0.00;0.00;;;1.80;86.60;;;;;;5054755;28;20492;-82
2022/03/09 02:05:30;;;;;;;0.50;0.30;;;1.80;85.50;;;;;;5037583;28;20092;-83
2022/03/09 02:10:41;;;;;;;0.13;0.13;;;1.90;85.60;;;;;;5055191;28;20080;-83
2022/03/09 02:13:10;;;;;;;0.60;0.40;;;1.80;86.50;;;;;;5036897;28;20481;-83
2022/03/09 02:15:35;;;;;;;0.40;0.13;;;1.80;87.80;;;;;;5037528;28;20045;-83
2022/03/09 02:18:03;;;;;;;0.00;0.00;;;1.70;88.30;;;;;;5054105;28;20048;-83
2022/03/09 02:20:28;;;;;;;0.00;0.00;;;1.70;88.40;;;;;;5038109;28;20057;-83
2022/03/09 02:22:55;;;;;;;0.52;0.10;;;1.70;87.10;;;;;;5038159;28;20041;-83
2022/03/09 02:25:20;;;;;;;0.90;0.57;;;1.70;87.90;;;;;;5037418;28;20044;-82
2022/03/09 02:27:47;;;;;;;0.08;0.03;;;1.70;88.90;;;;;;5037763;28;20373;-83
2022/03/09 02:30:19;;;;;;;0.10;0.10;;;1.70;89.10;;;;;;5037710;28;20049;-83
2022/03/09 02:32:47;;;;;;;0.00;0.00;;;1.60;89.60;;;;;;5037852;28;20048;-83
2022/03/09 02:35:15;;;;;;;0.00;0.00;;;1.60;89.20;;;;;;5054159;28;20041;-83
2022/03/09 02:37:41;;;;;;;0.00;0.00;;;1.70;90.10;;;;;;5037217;28;20534;-83
2022/03/09 02:40:09;;;;;;;0.13;0.10;;;1.60;90.00;;;;;;5054314;28;20048;-83
2022/03/09 02:42:34;;;;;;;0.00;0.00;;;1.60;90.10;;;;;;5037180;28;20048;-83
2022/03/09 02:45:00;;;;;;;0.52;0.52;;;1.60;89.50;;;;;;5037375;28;20057;-83
2022/03/09 02:47:26;;;;;;;0.00;0.00;;;1.60;90.50;;;;;;5037384;28;20057;-83
2022/03/09 02:49:51;;;;;;;0.55;0.55;;;1.50;90.70;;;;;;5037200;28;20057;-83
2022/03/09 02:52:17;;;;;;;0.13;0.13;;;1.50;90.80;;;;;;5037290;28;20057;-83
2022/03/09 02:54:43;;;;;;;1.00;0.90;;;1.50;91.10;;;;;;5036990;28;20052;-83
2022/03/09 02:57:08;;;;;;;0.85;0.55;;;1.40;91.40;;;;;;5037113;28;20048;-84
2022/03/09 02:59:35;;;;;;;0.05;0.05;;;1.40;91.10;;;;;;5053734;28;20049;-83
2022/03/09 03:02:01;;;;;;;0.00;0.00;;;1.40;91.30;;;;;;5037084;28;20098;-83
2022/03/09 03:04:27;;;;;;;0.00;0.00;;;1.30;91.20;;;;;;5053305;28;20080;-83
2022/03/09 03:06:53;;;;;;;0.10;0.10;;;1.40;91.30;;;;;;5036458;28;20512;-83
2022/03/09 03:09:19;;;;;;;0.45;0.45;;;1.30;91.50;;;;;;5036660;28;20063;-83
2022/03/09 03:11:44;;;;;;;0.00;0.00;;;1.30;91.90;;;;;;5053517;28;20132;-83
2022/03/09 03:14:10;;;;;;;0.10;0.10;;;1.30;92.60;;;;;;5052938;28;20041;-83
2022/03/09 03:16:36;;;;;;;0.43;0.40;;;1.20;92.50;;;;;;5052513;28;20055;-83
2022/03/09 03:19:02;;;;;;;0.85;0.08;;;1.20;92.80;;;;;;5053339;28;20619;-83
2022/03/09 03:21:28;;;;;;;0.00;0.00;;;1.20;92.20;;;;;;5036744;28;20118;-83
2022/03/09 03:23:53;;;;;;;0.03;0.00;;;1.20;92.40;;;;;;5036667;28;20128;-83
2022/03/09 03:26:19;;;;;;;0.00;0.00;;;1.20;92.50;;;;;;5053182;28;20045;-83
2022/03/09 03:28:45;;;;;;;0.63;0.10;;;1.20;93.40;;;;;;5036170;28;20037;-84
2022/03/09 03:31:10;;;;;;;0.00;0.00;;;1.20;93.50;;;;;;5036997;28;20056;-83
2022/03/09 03:33:36;;;;;;;0.00;0.00;;;1.10;93.30;;;;;;5053185;28;20048;-84
2022/03/09 03:36:02;;;;;;;0.30;0.20;;;1.10;92.70;;;;;;5053128;28;20049;-84
2022/03/09 03:38:28;;;;;;;0.00;0.00;;;1.00;93.10;;;;;;5052714;28;20041;-84
2022/03/09 03:40:53;;;;;;;1.98;0.40;;;1.00;93.30;;;;;;5036445;28;20037;-84
2022/03/09 03:43:19;;;;;;;0.00;0.00;;;0.90;94.30;;;;;;5052976;28;20048;-83
2022/03/09 03:45:45;;;;;;;0.00;0.00;;;0.90;94.10;;;;;;5036268;28;20080;-83
2022/03/09 03:48:10;;;;;;;1.20;0.40;;;0.90;94.70;;;;;;5052957;28;20052;-84
2022/03/09 03:50:36;;;;;;;0.10;0.10;;;0.90;94.30;;;;;;5036201;28;20115;-84
2022/03/09 03:53:02;;;;;;;0.10;0.10;;;0.90;94.50;;;;;;5052727;28;20036;-83
2022/03/09 03:55:28;;;;;;;0.28;0.20;;;0.80;95.60;;;;;;5036312;28;20106;-83
2022/03/09 03:57:53;;;;;;;0.20;0.00;;;0.70;95.50;;;;;;5035970;28;20131;-83
2022/03/09 04:00:19;;;;;;;0.00;0.00;;;0.60;95.90;;;;;;5036607;28;20563;-83
2022/03/09 04:02:45;;;;;;;0.00;0.00;;;0.70;96.10;;;;;;5052282;28;20128;-84
2022/03/09 04:05:11;;;;;;;0.10;0.10;;;0.70;96.00;;;;;;5035765;28;20403;-83
2022/03/09 04:07:36;;;;;;;1.35;0.90;;;0.70;96.50;;;;;;5053788;28;20075;-84
2022/03/09 04:10:03;;;;;;;0.00;0.00;;;0.70;95.60;;;;;;5052212;28;20048;-83
2022/03/09 04:12:29;;;;;;;0.20;0.20;;;0.70;96.40;;;;;;5036258;28;20492;-84
2022/03/09 04:14:55;;;;;;;0.20;0.20;;;0.70;96.90;;;;;;5052218;28;20098;-84
2022/03/09 04:17:21;;;;;;;0.00;0.00;;;0.60;96.90;;;;;;5035575;28;20103;-84
2022/03/09 04:19:47;;;;;;;0.00;0.00;;;0.60;96.80;;;;;;5036031;28;20049;-84
2022/03/09 04:22:13;;;;;;;0.00;0.00;;;0.60;97.20;;;;;;5052784;28;20084;-84
2022/03/09 04:24:38;;;;;;;0.00;0.00;;;0.50;97.00;;;;;;5052567;28;20088;-84
2022/03/09 04:27:05;;;;;;;0.00;0.00;;;0.50;96.70;;;;;;5036417;28;20041;-83
2022/03/09 04:29:30;;;;;;;0.00;0.00;;;0.50;97.60;;;;;;5053228;28;20040;-84
2022/03/09 04:31:56;;;;;;;0.20;0.20;;;0.50;97.50;;;;;;5052022;28;20558;-84
2022/03/09 04:34:22;;;;;;;1.02;0.22;;;0.50;97.30;;;;;;5052338;28;20056;-84
2022/03/09 04:36:48;;;;;;;0.00;0.00;;;0.50;97.80;;;;;;5055099;28;20040;-84
2022/03/09 04:39:14;;;;;;;0.00;0.00;;;0.60;98.50;;;;;;5056530;28;20041;-84
2022/03/09 04:41:39;;;;;;;0.00;0.00;;;0.60;98.20;;;;;;5039689;28;20182;-84
2022/03/09 04:44:05;;;;;;;0.00;0.00;;;0.50;98.50;;;;;;5056095;28;20131;-84
2022/03/09 04:46:31;;;;;;;0.10;0.10;;;0.50;98.50;;;;;;5056342;28;20047;-84
2022/03/09 04:48:57;;;;;;;0.70;0.10;;;0.50;98.70;;;;;;5056445;28;20225;-84
2022/03/09 04:51:22;;;;;;;0.22;0.20;;;0.50;98.70;;;;;;5039572;28;20053;-84
2022/03/09 04:53:48;;;;;;;0.45;0.40;;;0.60;99.40;;;;;;5039567;28;20052;-84
2022/03/09 04:56:15;;;;;;;0.10;0.10;;;0.60;98.40;;;;;;5039745;28;20100;-84
2022/03/09 04:58:41;;;;;;;0.10;0.10;;;0.60;98.50;;;;;;5055712;28;20045;-84
2022/03/09 05:01:06;;;;;;;0.00;0.00;;;0.60;98.60;;;;;;5055814;28;20037;-84
2022/03/09 05:03:34;;;;;;;0.00;0.00;;;0.50;98.60;;;;;;5039312;28;20052;-84
2022/03/09 05:06:01;;;;;;;0.15;0.10;;;0.50;98.90;;;;;;5039111;28;20061;-84
2022/03/09 05:08:26;;;;;;;0.45;0.20;;;0.50;98.30;;;;;;5038632;28;20102;-84
2022/03/09 05:10:52;;;;;;;0.00;0.00;;;0.60;98.90;;;;;;5055563;28;20057;-84
2022/03/09 05:13:20;;;;;;;0.00;0.00;;;0.60;98.70;;;;;;5055162;28;20052;-84
2022/03/09 05:15:45;;;;;;;0.55;0.10;;;0.60;99.10;;;;;;5055875;28;20099;-84
2022/03/09 05:18:11;;;;;;;1.48;1.08;;;0.60;98.90;;;;;;5055500;28;20041;-84
2022/03/09 05:20:37;;;;;;;0.08;0.03;;;0.60;98.10;;;;;;5055680;28;20051;-84
2022/03/09 05:23:02;;;;;;;0.00;0.00;;;0.60;98.60;;;;;;5038627;28;20080;-84
2022/03/09 05:25:29;;;;;;;0.43;0.10;;;0.50;98.60;;;;;;5038842;28;20087;-84
2022/03/09 05:27:55;;;;;;;0.00;0.00;;;0.60;98.50;;;;;;5039029;28;20052;-84
2022/03/09 05:30:20;;;;;;;0.20;0.10;;;0.60;98.70;;;;;;5055222;28;20045;-85
2022/03/09 05:32:46;;;;;;;0.00;0.00;;;0.60;99.10;;;;;;5038437;28;20053;-85
2022/03/09 05:35:12;;;;;;;0.00;0.00;;;0.50;98.70;;;;;;5055244;28;20461;-84
2022/03/09 05:37:43;;;;;;;1.55;0.60;;;0.50;98.90;;;;;;5038496;28;20041;-85
2022/03/09 05:40:10;;;;;;;0.05;0.05;;;0.50;99.00;;;;;;5039038;28;20490;-84
2022/03/09 05:42:37;;;;;;;1.90;0.30;;;0.50;98.70;;;;;;5038964;28;20090;-85
2022/03/09 05:45:04;;;;;;;0.08;0.08;;;0.50;98.80;;;;;;5039136;28;20060;-84
2022/03/09 05:47:31;;;;;;;0.05;0.03;;;0.50;99.20;;;;;;5054735;28;20548;-84
2022/03/09 05:49:57;;;;;;;0.38;0.38;;;0.50;99.20;;;;;;5038087;28;20500;-85
2022/03/09 05:52:22;;;;;;;0.40;0.40;;;0.40;99.20;;;;;;5038431;28;20083;-85
2022/03/09 05:54:48;;;;;;;0.00;0.00;;;0.40;99.20;;;;;;5038876;28;20048;-84
2022/03/09 05:57:18;;;;;;;0.20;0.20;;;0.40;99.40;;;;;;5054844;28;20041;-84
2022/03/09 05:59:44;;;;;;;0.00;0.00;;;0.30;99.10;;;;;;5055272;28;20135;-85
2022/03/09 06:02:10;;;;;;;0.20;0.20;;;0.30;99.70;;;;;;5054948;28;20132;-85
2022/03/09 06:04:35;;;;;;;3.40;0.28;;;0.30;99.50;;;;;;5054785;28;20041;-85
2022/03/09 06:07:02;;;;;;;0.00;0.00;;;0.30;99.80;;;;;;5037826;28;20053;-84
2022/03/09 06:09:28;;;;;;;1.73;0.52;;;0.30;99.70;;;;;;5038105;28;20041;-84
2022/03/09 06:11:54;;;;;;;0.32;0.28;;;0.30;99.90;;;;;;5037751;28;20080;-84
2022/03/09 06:14:19;;;;;;;0.10;0.10;;;0.40;99.50;;;;;;5038147;28;20093;-85
2022/03/09 06:16:47;;;;;;;1.30;0.45;;;0.30;99.90;;;;;;5054880;28;20128;-85
2022/03/09 06:19:17;;;;;;;0.05;0.05;;;0.30;99.90;;;;;;5038088;28;20396;-84
2022/03/09 06:21:43;;;;;;;0.30;0.30;;;0.30;99.90;;;;;;5062081;28;20497;-84
2022/03/09 06:24:09;;;;;;;0.00;0.00;;;0.30;99.90;;;;;;5061545;28;20049;-85
2022/03/09 06:26:36;;;;;;;0.00;0.00;;;0.30;99.90;;;;;;5074294;28;20131;-85
2022/03/09 06:29:05;;;;;;;0.00;0.00;;;0.30;99.90;;;;;;5049642;28;20102;-85
2022/03/09 06:31:31;;;;;;;0.00;0.00;;;0.30;99.90;;;;;;5046817;28;20056;-85
2022/03/09 06:33:57;;;;;;;0.17;0.17;;;0.30;99.90;;;;;;5039912;28;20060;-85
2022/03/09 06:36:24;;;;;;;3.75;0.38;;;0.40;99.90;;;;;;5037485;28;20064;-84
2022/03/09 06:38:50;;;;;;;0.35;0.20;;;0.50;99.90;;;;;;5054327;28;20053;-85
2022/03/09 06:41:16;;;;;;;0.17;0.17;;;0.60;99.90;;;;;;5037771;28;20082;-85
2022/03/09 06:43:42;;;;;;;3.40;0.20;;;0.70;99.90;;;;;;5059443;28;20048;-85
2022/03/09 06:46:08;;;;;;;0.40;0.32;;;0.80;99.90;;;;;;5046994;28;20045;-85
2022/03/09 06:48:34;;;;;;;0.00;0.00;;;1.00;99.90;;;;;;5064621;28;20404;-85
2022/03/09 06:50:59;;;;;;;0.00;0.00;;;1.10;99.80;;;;;;5042435;28;20049;-86
2022/03/09 06:53:25;;;;;;;0.25;0.15;;;1.10;99.60;;;;;;5053833;28;20052;-86
2022/03/09 06:55:51;;;;;;;0.32;0.10;;;1.10;99.50;;;;;;5036891;28;20045;-86
2022/03/09 06:58:17;;;;;;;3.83;0.60;;;1.10;99.50;;;;;;5052953;28;20064;-86
2022/03/09 07:00:42;;;;;;;0.00;0.00;;;1.10;99.30;;;;;;5037029;28;20049;-85
2022/03/09 07:03:08;;;;;;;0.30;0.30;;;1.10;99.10;;;;;;5053473;28;20075;-86
2022/03/09 07:05:34;;;;;;;0.28;0.03;;;1.10;99.30;;;;;;5059965;28;20049;-86
2022/03/09 07:08:01;;;;;;;0.00;0.00;;;1.20;99.30;;;;;;5073666;28;20057;-85
2022/03/09 07:10:27;;;;;;;0.50;0.22;;;1.30;99.30;;;;;;5073759;28;20045;-86
2022/03/09 07:12:53;;;;;;;0.32;0.28;;;1.50;99.20;;;;;;5073610;28;20102;-85
2022/03/09 07:15:19;;;;;;;0.95;0.13;;;2.00;98.90;;;;;;5073489;28;20048;-85
2022/03/09 07:17:47;;;;;;;0.05;0.03;;;2.70;98.60;;;;;;5073210;28;20040;-85
2022/03/09 07:20:13;;;;;;;0.10;0.10;;;3.50;96.70;;;;;;5073425;28;20051;-85
2022/03/09 07:22:40;;;;;;;0.00;0.00;;;4.20;94.40;;;;;;5073616;28;20132;-85
2022/03/09 07:25:07;;;;;;;0.25;0.25;;;4.80;92.40;;;;;;5052461;28;20614;-85
2022/03/09 07:27:33;;;;;;;0.00;0.00;;;5.40;91.50;;;;;;5036390;28;20049;-85
2022/03/09 07:29:58;;;;;;;0.10;0.10;;;5.90;88.40;;;;;;5058407;28;20049;-85
2022/03/09 07:32:24;;;;;;;0.20;0.20;;;5.90;85.90;;;;;;5061297;28;20426;-85
2022/03/09 07:34:50;;;;;;;0.47;0.47;;;5.70;84.50;;;;;;5061020;28;20044;-85
2022/03/09 07:37:15;;;;;;;0.00;0.00;;;5.50;83.40;;;;;;5046508;28;20505;-85
2022/03/09 07:39:41;;;;;;;0.60;0.35;;;5.40;84.70;;;;;;5045932;28;20044;-85
2022/03/09 07:42:07;;;;;;;0.30;0.25;;;5.10;84.50;;;;;;5061306;28;20049;-85
2022/03/09 07:44:33;;;;;;;0.55;0.30;;;5.00;84.70;;;;;;5063287;28;20045;-85
2022/03/09 07:46:58;;;;;;;0.80;0.25;;;5.00;85.10;;;;;;5058136;28;20049;-86
2022/03/09 07:49:24;;;;;;;0.00;0.00;;;4.90;84.30;;;;;;5044569;28;20068;-85
2022/03/09 07:51:50;;;;;;;0.30;0.30;;;5.00;85.10;;;;;;5046170;28;20066;-85
2022/03/09 07:54:16;;;;;;;0.05;0.05;;;5.10;84.10;;;;;;5045611;28;20160;-86
2022/03/09 07:56:43;;;;;;;0.10;0.10;;;5.40;83.90;;;;;;5044442;28;20137;-85
2022/03/09 07:59:10;;;;;;;2.53;0.10;;;5.50;82.80;;;;;;5045096;28;20091;-87
2022/03/09 08:01:37;;;;;;;0.20;0.10;;;5.60;81.40;;;;;;5043245;28;20045;-87
2022/03/09 08:04:03;;;;;;;0.10;0.10;;;5.60;81.30;;;;;;5043561;28;20396;-84
2022/03/09 08:06:29;;;;;;;0.00;0.00;;;5.60;81.10;;;;;;5043865;28;20113;-84
2022/03/09 08:08:55;;;;;;;0.00;0.00;;;5.60;81.40;;;;;;5061731;28;20455;-84
2022/03/09 08:11:22;;;;;;;0.20;0.10;;;5.70;81.30;;;;;;5059041;28;20152;-84
2022/03/09 08:13:48;;;;;;;0.30;0.22;;;5.80;82.20;;;;;;5061057;28;20047;-83
2022/03/09 08:16:14;;;;;;;0.25;0.25;;;5.90;80.70;;;;;;5062081;28;20048;-83
2022/03/09 08:18:39;;;;;;;0.00;0.00;;;6.20;80.70;;;;;;5046181;28;20101;-84
2022/03/09 08:21:05;;;;;;;0.10;0.08;;;6.30;80.30;;;;;;5045081;28;20041;-84
2022/03/09 08:23:31;;;;;;;0.10;0.00;;;6.70;79.00;;;;;;5044449;28;20048;-84
2022/03/09 08:25:57;;;;;;;0.00;0.00;;;7.20;77.90;;;;;;5046240;28;20109;-84
2022/03/09 08:28:23;;;;;;;0.00;0.00;;;7.70;77.90;;;;;;5061179;28;20039;-84
2022/03/09 08:30:48;;;;;;;3.35;2.35;;;8.00;73.80;;;;;;5045628;28;20469;-85
2022/03/09 08:33:17;;;;;;;0.00;0.00;;;8.30;72.60;;;;;;5041803;28;20503;-84
2022/03/09 08:35:43;;;;;;;0.52;0.30;;;8.50;72.60;;;;;;5050719;28;20044;-84
2022/03/09 08:38:09;;;;;;;0.28;0.28;;;8.70;70.50;;;;;;5050924;28;20033;-84
2022/03/09 08:40:34;;;;;;;0.20;0.10;;;8.80;68.40;;;;;;5052113;28;20179;-85
2022/03/09 08:43:00;;;;;;;0.00;0.00;;;9.00;67.90;;;;;;5052653;28;20033;-85
2022/03/09 08:45:26;;;;;;;4.28;0.50;;;9.00;68.30;;;;;;5036138;28;20498;-84
2022/03/09 08:47:51;;;;;;;0.43;0.43;;;9.20;67.40;;;;;;5052766;28;20040;-84
2022/03/09 08:50:17;;;;;;;0.68;0.10;;;9.30;65.80;;;;;;5035815;28;20045;-84
2022/03/09 08:52:43;;;;;;;4.32;0.98;;;9.70;66.90;;;;;;5035409;28;20499;-84
2022/03/09 08:55:09;;;;;;;0.10;0.10;;;9.90;65.00;;;;;;5052599;28;20059;-85
2022/03/09 08:57:35;;;;;;;0.17;0.10;;;9.80;64.00;;;;;;5035690;28;20444;-84
2022/03/09 09:00:03;;;;;;;1.00;0.28;;;9.90;63.20;;;;;;5052403;28;20132;-84
2022/03/09 09:02:30;;;;;;;0.75;0.40;;;9.70;62.80;;;;;;5052279;28;20049;-85
2022/03/09 09:04:56;;;;;;;0.10;0.10;;;9.70;62.60;;;;;;5035496;28;20045;-85
2022/03/09 09:07:23;;;;;;;0.13;0.13;;;9.90;61.80;;;;;;5052301;28;20064;-85
2022/03/09 09:09:48;;;;;;;0.00;0.00;;;9.70;60.20;;;;;;5052331;28;20435;-85
2022/03/09 09:12:14;;;;;;;0.43;0.28;;;9.80;59.10;;;;;;5035943;28;20037;-84
2022/03/09 09:14:40;;;;;;;4.70;1.10;;;10.20;60.60;;;;;;5035329;28;20468;-85
2022/03/09 09:17:06;;;;;;;0.00;0.00;;;10.20;59.70;;;;;;5052218;28;20087;-84
2022/03/09 09:19:33;;;;;;;1.25;0.43;;;10.50;60.60;;;;;;5052446;28;20045;-85
2022/03/09 09:21:59;;;;;;;1.25;0.30;;;10.50;57.70;;;;;;5053796;28;20049;-84
2022/03/09 09:24:25;;;;;;;2.05;0.43;;;10.70;56.70;;;;;;5055889;28;20150;-85
2022/03/09 09:26:51;;;;;;;0.35;0.13;;;10.80;56.40;;;;;;5039270;28;20468;-85
2022/03/09 09:29:16;;;;;;;0.10;0.10;;;10.70;55.30;;;;;;5062196;28;20041;-84
2022/03/09 09:31:42;;;;;;;1.35;0.40;;;10.90;55.80;;;;;;5049249;28;20373;-85
2022/03/09 09:34:08;;;;;;;0.00;0.00;;;11.00;56.50;;;;;;5065928;28;20400;-84
2022/03/09 09:36:35;;;;;;;0.32;0.20;;;11.00;54.60;;;;;;5048234;28;20076;-85
2022/03/09 09:39:02;;;;;;;0.00;0.00;;;11.10;54.50;;;;;;5063469;28;20048;-85
2022/03/09 09:41:28;;;;;;;0.10;0.10;;;11.40;55.90;;;;;;5065144;28;20051;-85
2022/03/09 09:43:54;;;;;;;0.10;0.05;;;11.40;53.90;;;;;;5057714;28;20512;-85
2022/03/09 09:46:20;;;;;;;0.10;0.10;;;11.40;52.90;;;;;;5038520;28;20057;-85
2022/03/09 09:48:47;;;;;;;4.00;0.30;;;11.70;53.80;;;;;;5038475;28;20388;-85
2022/03/09 09:51:13;;;;;;;0.47;0.08;;;11.60;52.90;;;;;;5055189;28;20084;-85
2022/03/09 09:53:43;;;;;;;0.47;0.30;;;11.50;51.50;;;;;;5055211;28;20045;-85
2022/03/09 09:56:09;;;;;;;0.65;0.65;;;11.60;51.70;;;;;;5055019;28;20051;-84
2022/03/09 09:58:36;;;;;;;0.00;0.00;;;11.90;52.20;;;;;;5054813;28;20041;-85
2022/03/09 10:01:03;;;;;;;0.00;0.00;;;12.30;51.20;;;;;;5038390;28;20132;-85
2022/03/09 10:03:28;;;;;;;0.13;0.13;;;12.30;50.10;;;;;;5055214;28;20416;-85
2022/03/09 10:05:54;;;;;;;0.30;0.10;;;12.10;50.30;;;;;;5037838;28;20106;-85
2022/03/09 10:08:20;;;;;;;0.20;0.20;;;12.10;50.90;;;;;;5038062;28;20045;-86
2022/03/09 10:10:57;;;;;;;0.35;0.35;;;11.90;50.50;;;;;;5037962;28;20128;-84
2022/03/09 10:13:28;;;;;;;0.45;0.20;;;12.00;50.00;;;;;;5038246;28;20132;-84
2022/03/09 10:16:20;;;;;;;0.22;0.13;;;12.60;51.60;;;;;;5054657;28;20488;-85
2022/03/09 10:18:56;;;;;;;0.50;0.50;;;12.50;49.50;;;;;;5054492;28;20045;-85
2022/03/09 10:21:21;;;;;;;0.13;0.05;;;12.40;50.40;;;;;;5038479;28;20066;-85
2022/03/09 10:24:11;;;;;;;4.75;0.20;;;12.70;50.40;;;;;;5038299;28;20044;-85
2022/03/09 10:26:40;;;;;;;2.28;0.10;;;13.00;50.30;;;;;;5054796;28;20122;-85
2022/03/09 10:29:08;;;;;;;0.30;0.30;;;13.00;48.80;;;;;;5054385;28;20044;-85
2022/03/09 10:31:42;;;;;;;0.00;0.00;;;13.10;49.00;;;;;;5037865;28;20451;-84
2022/03/09 10:34:14;;;;;;;1.75;0.60;;;13.50;49.30;;;;;;5053467;28;20084;-85
2022/03/09 10:36:58;;;;;;;0.00;0.00;;;13.20;48.40;;;;;;5054532;28;20087;-85
2022/03/09 10:39:30;;;;;;;0.00;0.00;;;13.30;48.50;;;;;;5037057;28;20408;-83
2022/03/09 10:41:58;;;;;;;0.10;0.10;;;13.20;49.60;;;;;;5053487;28;20432;-84
2022/03/09 10:44:45;;;;;;;0.20;0.20;;;13.20;48.50;;;;;;5037421;28;20508;-83
2022/03/09 10:47:27;;;;;;;0.80;0.63;;;13.40;49.40;;;;;;5045113;28;20047;-84
2022/03/09 10:49:52;;;;;;;0.10;0.10;;;13.40;48.00;;;;;;5054248;28;20045;-84
2022/03/09 10:52:18;;;;;;;0.10;0.10;;;13.60;48.20;;;;;;5053653;28;20557;-84
2022/03/09 10:54:44;;;;;;;0.35;0.35;;;13.50;47.60;;;;;;5037331;28;20397;-85
2022/03/09 10:57:11;;;;;;;0.52;0.28;;;13.50;48.50;;;;;;5059831;28;20036;-83
2022/03/09 10:59:51;;;;;;;0.22;0.22;;;13.60;46.70;;;;;;5056936;28;20056;-84
2022/03/09 11:02:20;;;;;;;0.52;0.50;;;13.60;47.90;;;;;;5053659;28;20095;-83
2022/03/09 11:05:09;;;;;;;2.65;0.52;;;13.80;48.20;;;;;;5053605;28;20041;-83
2022/03/09 11:07:39;;;;;;;2.28;0.40;;;13.70;48.00;;;;;;5036899;28;20045;-83
2022/03/09 11:10:06;;;;;;;0.60;0.50;;;13.60;46.90;;;;;;5053624;28;20052;-83
2022/03/09 11:12:32;;;;;;;0.20;0.20;;;13.70;47.50;;;;;;5037032;28;20064;-84
2022/03/09 11:14:58;;;;;;;1.77;0.52;;;14.10;47.70;;;;;;5039489;28;20501;-83
2022/03/09 11:17:24;;;;;;;0.17;0.17;;;14.20;48.80;;;;;;5066122;28;20079;-83
2022/03/09 11:19:50;;;;;;;3.15;0.25;;;14.20;46.60;;;;;;5044249;28;20048;-83
2022/03/09 11:22:17;;;;;;;0.20;0.20;;;13.80;46.70;;;;;;5047170;28;20094;-85
2022/03/09 11:24:42;;;;;;;0.10;0.10;;;13.90;47.00;;;;;;5053237;28;20055;-83
2022/03/09 11:27:10;;;;;;;1.20;0.65;;;14.00;47.50;;;;;;5053179;28;20049;-82
2022/03/09 11:29:38;;;;;;;0.00;0.00;;;14.10;47.90;;;;;;5052940;28;20603;-82
2022/03/09 11:32:05;;;;;;;0.20;0.10;;;13.90;48.00;;;;;;5036753;28;20118;-82
2022/03/09 11:34:45;;;;;;;0.30;0.30;;;14.20;47.70;;;;;;5054242;28;20045;-82
2022/03/09 11:37:15;;;;;;;0.30;0.30;;;14.20;46.20;;;;;;5036439;28;20472;-82
2022/03/09 11:39:46;;;;;;;1.58;0.40;;;14.20;46.40;;;;;;5055681;28;20094;-82
2022/03/09 11:42:20;;;;;;;0.80;0.50;;;14.00;45.60;;;;;;5067281;28;20111;-82
2022/03/09 11:44:53;;;;;;;;;;;14.30;48.00;;;;;;5049571;28;20047;-81
2022/03/09 11:47:19;;;;;;;0.43;0.43;;;14.30;45.90;;;;;;5064278;28;19967;-82
2022/03/09 11:49:52;;;;;;;0.25;0.25;;;14.20;45.40;;;;;;5052862;28;20095;-82
2022/03/09 11:52:27;;;;;;;0.52;0.45;;;14.20;45.70;;;;;;5052724;28;20041;-82
2022/03/09 11:54:59;;;;;;;0.40;0.40;;;14.30;45.70;;;;;;5036257;28;20053;-82
2022/03/09 11:57:45;;;;;;;1.75;0.45;;;14.50;46.00;;;;;;5059078;28;20045;-82
2022/03/09 12:00:13;;;;;;;0.20;0.20;;;14.30;45.20;;;;;;5046714;28;20043;-82
2022/03/09 12:02:43;;;;;;;0.50;0.40;;;14.50;45.60;;;;;;5046436;28;20120;-81
2022/03/09 12:05:24;;;;;;;0.10;0.10;;;14.30;43.20;;;;;;5061672;28;20084;-82
2022/03/09 12:07:53;;;;;;;0.40;0.40;;;14.20;44.30;;;;;;5060727;28;20064;-81
2022/03/09 12:10:24;;;;;;;2.05;0.40;;;14.20;45.10;;;;;;5061992;28;20076;-82
2022/03/09 12:13:10;;;;;;;0.15;0.10;;;14.40;45.10;;;;;;5063084;28;20045;-81
2022/03/09 12:16:07;;;;;;;0.22;0.22;;;14.60;45.70;;;;;;5059798;28;20037;-82
2022/03/09 12:18:48;;;;;;;0.10;0.10;;;14.80;44.90;;;;;;5061278;28;20053;-81
2022/03/09 12:21:42;;;;;;;1.10;0.45;;;14.90;44.00;;;;;;5059886;28;20530;-82
2022/03/09 12:24:14;;;;;;;0.98;0.20;;;14.90;44.40;;;;;;5044900;28;20053;-82
2022/03/09 12:26:47;;;;;;;0.20;0.20;;;15.10;44.20;;;;;;5041748;28;20088;-81
2022/03/09 12:29:21;;;;;;;0.77;0.35;;;15.10;43.00;;;;;;5042818;28;20147;-82
2022/03/09 12:32:02;;;;;;;0.35;0.22;;;15.20;43.40;;;;;;5048633;28;20094;-82
2022/03/09 12:34:31;;;;;;;0.15;0.15;;;15.50;42.20;;;;;;5025934;28;20064;-82
2022/03/09 12:36:57;;;;;;;0.85;0.20;;;15.90;43.80;;;;;;5042243;28;20182;-82
2022/03/09 12:39:24;;;;;;;0.73;0.28;;;15.90;41.50;;;;;;5043998;28;20391;-81
2022/03/09 12:41:54;;;;;;;0.08;0.08;;;16.20;41.20;;;;;;5042746;28;20049;-81
2022/03/09 12:44:23;;;;;;;0.10;0.10;;;15.90;41.40;;;;;;5025432;28;20857;-81
2022/03/09 12:46:53;;;;;;;0.28;0.10;;;16.00;41.90;;;;;;5043343;28;20049;-81
2022/03/09 12:49:28;;;;;;;0.57;0.17;;;15.80;41.40;;;;;;5043889;28;20053;-81
2022/03/09 12:51:56;;;;;;;0.40;0.28;;;16.10;41.20;;;;;;5040115;28;20070;-81
2022/03/09 12:54:48;;;;;;;0.00;0.00;;;16.00;42.50;;;;;;5024518;28;20163;-81
2022/03/09 12:57:24;;;;;;;0.00;0.00;;;15.90;41.70;;;;;;5022124;28;20547;-81
2022/03/09 12:59:56;;;;;;;0.38;0.38;;;15.70;40.90;;;;;;5043420;28;20076;-81